Terry, Montana
Current Conditions -  °F | °C
As of 6:35 PM on Monday 24 Nov 2014 (Local Time) from KGDV Reporting Station
Clear Clear  
Wind Chill: 17°   Ceiling: Unl
Heat Index: 27°   Visibility: 10mi
Dew Point: 23°   Wind: 10mph
Humidity: 86%   Direction: 270°W
Pressure: 30.02"   Gusts: NA
Location:  46.79°N, 105.31°W
Report Text: KGDV 250135Z AUTO 27009KT 10SM CLR M03/M05 A3002 RMK AO1
Loading
Personal Weather Stations






























Interactive Weather Map New forecast layout! Learn more

10-Day Weather Forecast

Advertisements
Track Severe Weather on mobile